sensor_id;sensor_type;location;lat;lon;timestamp;P1;durP1;ratioP1;P2;durP2;ratioP2
16967;SDS011;64862;54.398;10.126;2023-05-07T00:02:26;26.88;;;10.70;;
16967;SDS011;64862;54.398;10.126;2023-05-07T00:12:29;28.67;;;11.65;;
16967;SDS011;64862;54.398;10.126;2023-05-07T00:22:35;26.58;;;11.48;;
16967;SDS011;64862;54.398;10.126;2023-05-07T00:32:40;23.95;;;11.13;;
16967;SDS011;64862;54.398;10.126;2023-05-07T00:42:46;23.83;;;12.07;;
16967;SDS011;64862;54.398;10.126;2023-05-07T00:52:57;28.92;;;12.55;;
16967;SDS011;64862;54.398;10.126;2023-05-07T01:03:01;26.20;;;12.85;;
16967;SDS011;64862;54.398;10.126;2023-05-07T01:13:06;25.65;;;12.80;;
16967;SDS011;64862;54.398;10.126;2023-05-07T01:23:11;22.73;;;12.65;;
16967;SDS011;64862;54.398;10.126;2023-05-07T01:33:13;23.75;;;12.40;;
16967;SDS011;64862;54.398;10.126;2023-05-07T01:43:18;22.98;;;13.18;;
16967;SDS011;64862;54.398;10.126;2023-05-07T01:53:21;22.08;;;12.88;;
16967;SDS011;64862;54.398;10.126;2023-05-07T02:03:25;21.92;;;13.82;;
16967;SDS011;64862;54.398;10.126;2023-05-07T02:13:37;21.33;;;13.30;;
16967;SDS011;64862;54.398;10.126;2023-05-07T02:23:41;18.67;;;12.05;;
16967;SDS011;64862;54.398;10.126;2023-05-07T02:33:43;20.85;;;11.23;;
16967;SDS011;64862;54.398;10.126;2023-05-07T02:43:49;16.45;;;11.02;;
16967;SDS011;64862;54.398;10.126;2023-05-07T02:53:52;16.58;;;11.18;;
16967;SDS011;64862;54.398;10.126;2023-05-07T03:03:57;16.15;;;10.25;;
16967;SDS011;64862;54.398;10.126;2023-05-07T03:13:59;14.85;;;10.30;;
16967;SDS011;64862;54.398;10.126;2023-05-07T03:24:04;16.40;;;10.52;;
16967;SDS011;64862;54.398;10.126;2023-05-07T03:34:07;20.85;;;10.63;;
16967;SDS011;64862;54.398;10.126;2023-05-07T03:44:11;14.00;;;9.65;;
16967;SDS011;64862;54.398;10.126;2023-05-07T03:54:15;12.88;;;9.13;;
16967;SDS011;64862;54.398;10.126;2023-05-07T04:04:20;15.18;;;8.60;;
16967;SDS011;64862;54.398;10.126;2023-05-07T04:14:22;12.25;;;8.18;;
16967;SDS011;64862;54.398;10.126;2023-05-07T04:24:27;14.68;;;8.63;;
16967;SDS011;64862;54.398;10.126;2023-05-07T04:34:32;19.67;;;9.85;;
16967;SDS011;64862;54.398;10.126;2023-05-07T04:44:37;14.52;;;9.63;;
16967;SDS011;64862;54.398;10.126;2023-05-07T04:54:40;14.90;;;10.00;;
16967;SDS011;64862;54.398;10.126;2023-05-07T05:04:45;12.90;;;8.55;;
16967;SDS011;64862;54.398;10.126;2023-05-07T05:14:48;13.80;;;8.65;;
16967;SDS011;64862;54.398;10.126;2023-05-07T05:24:52;13.13;;;8.55;;
16967;SDS011;64862;54.398;10.126;2023-05-07T05:34:56;13.57;;;8.52;;
16967;SDS011;64862;54.398;10.126;2023-05-07T05:45:00;14.00;;;8.95;;
16967;SDS011;64862;54.398;10.126;2023-05-07T05:55:05;12.20;;;8.23;;
16967;SDS011;64862;54.398;10.126;2023-05-07T06:05:11;13.23;;;7.85;;
16967;SDS011;64862;54.398;10.126;2023-05-07T06:15:14;12.27;;;7.88;;
16967;SDS011;64862;54.398;10.126;2023-05-07T06:25:21;12.38;;;7.07;;
16967;SDS011;64862;54.398;10.126;2023-05-07T06:35:23;11.55;;;7.75;;
16967;SDS011;64862;54.398;10.126;2023-05-07T06:45:28;11.40;;;8.45;;
16967;SDS011;64862;54.398;10.126;2023-05-07T06:55:32;12.13;;;7.43;;
16967;SDS011;64862;54.398;10.126;2023-05-07T07:05:36;11.13;;;7.13;;
16967;SDS011;64862;54.398;10.126;2023-05-07T07:15:39;11.50;;;7.25;;
16967;SDS011;64862;54.398;10.126;2023-05-07T07:25:43;10.95;;;6.22;;
16967;SDS011;64862;54.398;10.126;2023-05-07T07:35:45;9.68;;;5.53;;
16967;SDS011;64862;54.398;10.126;2023-05-07T07:45:50;7.25;;;4.93;;
16967;SDS011;64862;54.398;10.126;2023-05-07T07:55:53;10.85;;;5.35;;
16967;SDS011;64862;54.398;10.126;2023-05-07T08:06:00;7.40;;;4.82;;
16967;SDS011;64862;54.398;10.126;2023-05-07T08:16:04;7.05;;;4.90;;
16967;SDS011;64862;54.398;10.126;2023-05-07T08:26:09;8.73;;;5.07;;
16967;SDS011;64862;54.398;10.126;2023-05-07T08:36:12;5.93;;;3.83;;
16967;SDS011;64862;54.398;10.126;2023-05-07T08:46:17;10.27;;;4.55;;
16967;SDS011;64862;54.398;10.126;2023-05-07T08:56:22;6.43;;;4.70;;
16967;SDS011;64862;54.398;10.126;2023-05-07T09:06:28;7.68;;;4.38;;
16967;SDS011;64862;54.398;10.126;2023-05-07T09:16:31;7.22;;;4.28;;
16967;SDS011;64862;54.398;10.126;2023-05-07T09:26:36;6.53;;;4.30;;
16967;SDS011;64862;54.398;10.126;2023-05-07T09:36:40;5.55;;;3.95;;
16967;SDS011;64862;54.398;10.126;2023-05-07T09:46:44;6.82;;;4.45;;
16967;SDS011;64862;54.398;10.126;2023-05-07T09:57:04;8.23;;;3.45;;
16967;SDS011;64862;54.398;10.126;2023-05-07T10:07:09;5.72;;;2.97;;
16967;SDS011;64862;54.398;10.126;2023-05-07T10:17:12;6.57;;;3.30;;
16967;SDS011;64862;54.398;10.126;2023-05-07T10:27:20;5.00;;;2.80;;
16967;SDS011;64862;54.398;10.126;2023-05-07T10:37:27;9.80;;;2.97;;
16967;SDS011;64862;54.398;10.126;2023-05-07T10:47:34;5.27;;;2.90;;
16967;SDS011;64862;54.398;10.126;2023-05-07T10:57:36;4.32;;;2.20;;
16967;SDS011;64862;54.398;10.126;2023-05-07T11:07:55;4.70;;;2.60;;
16967;SDS011;64862;54.398;10.126;2023-05-07T11:18:03;4.55;;;2.60;;
16967;SDS011;64862;54.398;10.126;2023-05-07T11:28:11;4.90;;;2.20;;
16967;SDS011;64862;54.398;10.126;2023-05-07T11:38:19;5.53;;;1.80;;
16967;SDS011;64862;54.398;10.126;2023-05-07T11:48:25;4.72;;;2.00;;
16967;SDS011;64862;54.398;10.126;2023-05-07T11:58:31;2.95;;;1.60;;
16967;SDS011;64862;54.398;10.126;2023-05-07T12:18:49;3.97;;;1.67;;
16967;SDS011;64862;54.398;10.126;2023-05-07T12:28:52;2.65;;;1.75;;
16967;SDS011;64862;54.398;10.126;2023-05-07T12:38:56;2.58;;;1.50;;
16967;SDS011;64862;54.398;10.126;2023-05-07T12:48:58;3.65;;;1.60;;
16967;SDS011;64862;54.398;10.126;2023-05-07T12:59:01;11.00;;;3.30;;
16967;SDS011;64862;54.398;10.126;2023-05-07T13:09:03;7.00;;;3.38;;
16967;SDS011;64862;54.398;10.126;2023-05-07T13:19:07;8.35;;;3.42;;
16967;SDS011;64862;54.398;10.126;2023-05-07T13:29:10;8.82;;;3.40;;
16967;SDS011;64862;54.398;10.126;2023-05-07T13:39:13;7.93;;;3.40;;
16967;SDS011;64862;54.398;10.126;2023-05-07T13:49:15;8.13;;;3.60;;
16967;SDS011;64862;54.398;10.126;2023-05-07T13:59:19;9.60;;;4.00;;
16967;SDS011;64862;54.398;10.126;2023-05-07T14:09:21;11.77;;;3.80;;
16967;SDS011;64862;54.398;10.126;2023-05-07T14:19:24;7.15;;;3.63;;
16967;SDS011;64862;54.398;10.126;2023-05-07T14:29:26;8.45;;;4.05;;
16967;SDS011;64862;54.398;10.126;2023-05-07T14:39:30;8.27;;;4.28;;
16967;SDS011;64862;54.398;10.126;2023-05-07T14:49:32;7.85;;;4.18;;
16967;SDS011;64862;54.398;10.126;2023-05-07T14:59:35;11.13;;;4.35;;
16967;SDS011;64862;54.398;10.126;2023-05-07T15:09:38;12.32;;;4.57;;
16967;SDS011;64862;54.398;10.126;2023-05-07T15:19:42;9.98;;;3.97;;
16967;SDS011;64862;54.398;10.126;2023-05-07T15:29:44;12.95;;;4.10;;
16967;SDS011;64862;54.398;10.126;2023-05-07T15:39:47;10.63;;;4.22;;
16967;SDS011;64862;54.398;10.126;2023-05-07T15:49:49;8.85;;;3.78;;
16967;SDS011;64862;54.398;10.126;2023-05-07T15:59:53;10.35;;;4.35;;
16967;SDS011;64862;54.398;10.126;2023-05-07T16:09:55;11.65;;;4.35;;
16967;SDS011;64862;54.398;10.126;2023-05-07T16:19:58;10.02;;;3.95;;
16967;SDS011;64862;54.398;10.126;2023-05-07T16:30:01;9.88;;;3.97;;
16967;SDS011;64862;54.398;10.126;2023-05-07T16:40:05;13.35;;;5.43;;
16967;SDS011;64862;54.398;10.126;2023-05-07T16:50:08;9.20;;;4.20;;
16967;SDS011;64862;54.398;10.126;2023-05-07T17:00:15;8.13;;;3.65;;
16967;SDS011;64862;54.398;10.126;2023-05-07T17:10:18;11.37;;;4.00;;
16967;SDS011;64862;54.398;10.126;2023-05-07T17:20:21;14.88;;;4.68;;
16967;SDS011;64862;54.398;10.126;2023-05-07T17:30:24;10.30;;;4.20;;
16967;SDS011;64862;54.398;10.126;2023-05-07T17:40:28;11.90;;;4.38;;
16967;SDS011;64862;54.398;10.126;2023-05-07T17:50:30;10.70;;;3.95;;
16967;SDS011;64862;54.398;10.126;2023-05-07T18:00:33;12.23;;;4.28;;
16967;SDS011;64862;54.398;10.126;2023-05-07T18:10:36;10.65;;;4.15;;
16967;SDS011;64862;54.398;10.126;2023-05-07T18:20:39;10.52;;;4.05;;
16967;SDS011;64862;54.398;10.126;2023-05-07T18:30:41;12.88;;;4.07;;
16967;SDS011;64862;54.398;10.126;2023-05-07T18:40:47;9.38;;;3.75;;
16967;SDS011;64862;54.398;10.126;2023-05-07T18:50:53;9.50;;;3.90;;
16967;SDS011;64862;54.398;10.126;2023-05-07T19:00:57;9.15;;;3.92;;
16967;SDS011;64862;54.398;10.126;2023-05-07T19:10:59;13.10;;;3.85;;
16967;SDS011;64862;54.398;10.126;2023-05-07T19:21:02;8.88;;;3.33;;
16967;SDS011;64862;54.398;10.126;2023-05-07T19:31:05;12.00;;;4.00;;
16967;SDS011;64862;54.398;10.126;2023-05-07T19:41:09;12.43;;;3.80;;
16967;SDS011;64862;54.398;10.126;2023-05-07T19:51:11;22.15;;;3.92;;
16967;SDS011;64862;54.398;10.126;2023-05-07T20:01:14;12.35;;;3.70;;
16967;SDS011;64862;54.398;10.126;2023-05-07T20:11:20;11.35;;;3.85;;
16967;SDS011;64862;54.398;10.126;2023-05-07T20:21:24;8.48;;;3.20;;
16967;SDS011;64862;54.398;10.126;2023-05-07T20:31:27;10.48;;;3.25;;
16967;SDS011;64862;54.398;10.126;2023-05-07T20:41:32;6.97;;;3.25;;
16967;SDS011;64862;54.398;10.126;2023-05-07T20:51:34;8.02;;;3.03;;
16967;SDS011;64862;54.398;10.126;2023-05-07T21:01:38;7.88;;;3.15;;
16967;SDS011;64862;54.398;10.126;2023-05-07T21:11:41;6.18;;;2.65;;
16967;SDS011;64862;54.398;10.126;2023-05-07T21:21:45;6.53;;;2.63;;
16967;SDS011;64862;54.398;10.126;2023-05-07T21:31:51;7.90;;;2.70;;
16967;SDS011;64862;54.398;10.126;2023-05-07T21:41:55;6.22;;;2.85;;
16967;SDS011;64862;54.398;10.126;2023-05-07T21:51:57;5.85;;;2.72;;
16967;SDS011;64862;54.398;10.126;2023-05-07T22:02:01;6.95;;;2.80;;
16967;SDS011;64862;54.398;10.126;2023-05-07T22:12:07;6.18;;;3.00;;
16967;SDS011;64862;54.398;10.126;2023-05-07T22:22:11;6.32;;;2.83;;
16967;SDS011;64862;54.398;10.126;2023-05-07T22:32:13;6.30;;;2.90;;
16967;SDS011;64862;54.398;10.126;2023-05-07T22:42:17;7.10;;;2.70;;
16967;SDS011;64862;54.398;10.126;2023-05-07T22:52:20;6.35;;;2.85;;
16967;SDS011;64862;54.398;10.126;2023-05-07T23:02:24;10.10;;;3.15;;
16967;SDS011;64862;54.398;10.126;2023-05-07T23:12:27;8.32;;;3.47;;
16967;SDS011;64862;54.398;10.126;2023-05-07T23:22:31;5.13;;;2.95;;
16967;SDS011;64862;54.398;10.126;2023-05-07T23:32:34;9.52;;;3.38;;
16967;SDS011;64862;54.398;10.126;2023-05-07T23:42:51;6.65;;;3.00;;
16967;SDS011;64862;54.398;10.126;2023-05-07T23:52:53;7.55;;;3.30;;
